Time;durP1;ratioP1;P1;durP2;ratioP2;P2;SDS_P1;SDS_P2;PMS_P1;PMS_P2;Temp;Humidity;BMP_temperature;BMP_pressure;BME280_temperature;BME280_humidity;BME280_pressure;Samples;Min_cycle;Max_cycle;Signal;HPM_P1;HPM_P2
2023/05/23 00:01:48;;;;;;;10.05;8.95;;;;;;;-140.66;100.00;55571.53;5100700;28;20194;-76
2023/05/23 00:04:35;;;;;;;12.45;9.27;;;;;;;-140.66;100.00;55571.53;5101000;28;20059;-76
2023/05/23 00:07:21;;;;;;;12.60;9.18;;;;;;;-140.66;100.00;55571.53;5114808;28;20027;-77
2023/05/23 00:10:07;;;;;;;12.93;9.70;;;;;;;-140.66;100.00;55571.53;5101676;28;20027;-77
2023/05/23 00:12:54;;;;;;;12.52;9.20;;;;;;;-140.66;100.00;55571.53;5112002;28;20031;-75
2023/05/23 00:15:42;;;;;;;13.43;9.93;;;;;;;-140.66;100.00;55571.53;5115036;28;20360;-76
2023/05/23 00:18:29;;;;;;;13.48;10.45;;;;;;;-140.66;100.00;55571.53;5101739;28;20058;-75
2023/05/23 00:21:15;;;;;;;13.77;10.40;;;;;;;-140.66;100.00;55571.53;5115997;28;20031;-77
2023/05/23 00:24:01;;;;;;;15.00;11.80;;;;;;;-140.66;100.00;55571.53;5114566;28;20451;-76
2023/05/23 00:26:47;;;;;;;14.85;10.52;;;;;;;-140.66;100.00;55571.53;5100243;28;20034;-75
2023/05/23 00:29:33;;;;;;;17.35;11.60;;;;;;;-140.66;100.00;55571.53;5115681;28;20111;-76
2023/05/23 00:32:19;;;;;;;20.02;12.40;;;;;;;-140.66;100.00;55571.53;5115778;28;20092;-77
2023/05/23 00:35:05;;;;;;;19.77;12.25;;;;;;;-140.66;100.00;55571.53;5115323;28;20039;-77
2023/05/23 00:37:51;;;;;;;18.40;12.88;;;;;;;-140.66;100.00;55571.53;5099425;28;20031;-77
2023/05/23 00:40:37;;;;;;;16.70;12.60;;;;;;;-140.66;100.00;55571.53;5114102;28;20027;-77
2023/05/23 00:43:23;;;;;;;19.17;12.88;;;;;;;-140.66;100.00;55571.53;5100378;28;20375;-77
2023/05/23 00:46:10;;;;;;;18.38;14.07;;;;;;;-140.66;100.00;55571.53;5100512;28;20035;-76
2023/05/23 00:48:56;;;;;;;19.27;13.32;;;;;;;-140.66;100.00;55571.53;5100889;28;20088;-77
2023/05/23 00:51:42;;;;;;;17.77;12.40;;;;;;;-140.66;100.00;55571.53;5100623;28;20023;-77
2023/05/23 00:54:30;;;;;;;17.38;12.38;;;;;;;-140.66;100.00;55571.53;5100811;28;20031;-77
2023/05/23 00:57:16;;;;;;;17.77;11.85;;;;;;;-140.66;100.00;55571.53;5099135;28;20024;-77
2023/05/23 01:00:02;;;;;;;16.52;10.95;;;;;;;-140.66;100.00;55571.53;5113989;28;20034;-76
2023/05/23 01:02:50;;;;;;;19.15;11.25;;;;;;;-140.66;100.00;55571.53;5100529;28;20055;-76
2023/05/23 01:05:35;;;;;;;14.82;11.00;;;;;;;-140.66;100.00;55571.53;5099222;28;20093;-76
2023/05/23 01:08:21;;;;;;;16.33;10.95;;;;;;;-140.66;100.00;55571.53;5114046;28;20093;-77
2023/05/23 01:11:26;;;;;;;15.13;10.60;;;;;;;-140.66;100.00;55571.53;5099940;28;20436;-76
2023/05/23 01:14:22;;;;;;;16.42;10.88;;;;;;;-140.66;100.00;55571.53;5100631;28;20027;-76
2023/05/23 01:17:15;;;;;;;18.70;11.65;;;;;;;-140.66;100.00;55571.53;5113836;28;20047;-76
2023/05/23 01:20:08;;;;;;;14.88;10.98;;;;;;;-140.66;100.00;55571.53;5099853;28;20028;-77
2023/05/23 01:23:01;;;;;;;20.98;11.35;;;;;;;-140.66;100.00;55571.53;5100333;28;20024;-77
2023/05/23 01:26:10;;;;;;;17.17;11.63;;;;;;;-140.66;100.00;55571.53;5114998;28;20429;-76
2023/05/23 01:29:09;;;;;;;12.93;10.02;;;;;;;-140.66;100.00;55571.53;5102237;28;20039;-77
2023/05/23 01:31:57;;;;;;;17.33;11.75;;;;;;;-140.66;100.00;55571.53;5103336;28;20062;-75
2023/05/23 01:34:44;;;;;;;15.25;10.77;;;;;;;-140.66;100.00;55571.53;5118065;28;20038;-75
2023/05/23 01:37:30;;;;;;;18.50;12.15;;;;;;;-140.66;100.00;55571.53;5104286;28;20528;-77
2023/05/23 01:40:15;;;;;;;22.52;12.52;;;;;;;-140.66;100.00;55571.53;5104209;28;20474;-76
2023/05/23 01:43:01;;;;;;;17.60;12.00;;;;;;;-140.66;100.00;55571.53;5118130;28;20043;-77
2023/05/23 01:45:48;;;;;;;17.13;11.63;;;;;;;-140.66;100.00;55571.53;5102669;28;20028;-77
2023/05/23 01:48:37;;;;;;;18.30;10.85;;;;;;;-140.66;100.00;55571.53;5118493;28;20032;-75
2023/05/23 01:51:23;;;;;;;13.85;10.20;;;;;;;-140.66;100.00;55571.53;5118342;28;20032;-76
2023/05/23 01:54:09;;;;;;;16.23;11.05;;;;;;;-140.66;100.00;55571.53;5117283;28;20042;-76
2023/05/23 01:57:00;;;;;;;17.27;11.13;;;;;;;-140.66;100.00;55571.53;5102291;28;20084;-76
2023/05/23 01:59:46;;;;;;;18.38;12.07;;;;;;;-140.66;100.00;55571.53;5117987;28;20084;-76
2023/05/23 02:02:33;;;;;;;17.55;12.02;;;;;;;-140.66;100.00;55571.53;5102256;28;20020;-75
2023/05/23 02:05:18;;;;;;;17.83;12.75;;;;;;;-140.66;100.00;55571.53;5103621;28;20033;-76
2023/05/23 02:08:04;;;;;;;18.20;13.38;;;;;;;-140.66;100.00;55571.53;5103428;28;20031;-77
2023/05/23 02:10:50;;;;;;;19.13;12.68;;;;;;;-140.66;100.00;55571.53;5101908;28;20024;-76
2023/05/23 02:13:36;;;;;;;18.13;13.32;;;;;;;-140.66;100.00;55571.53;5116787;28;20027;-76
2023/05/23 02:16:22;;;;;;;16.67;13.00;;;;;;;-140.66;100.00;55571.53;5117252;28;20106;-76
2023/05/23 02:19:07;;;;;;;18.38;12.55;;;;;;;-140.66;100.00;55571.53;5102392;28;20024;-76
2023/05/23 02:21:53;;;;;;;17.08;12.60;;;;;;;-140.66;100.00;55571.53;5118465;27;20035;-77
2023/05/23 02:24:39;;;;;;;18.30;12.90;;;;;;;-140.66;100.00;55571.53;5101954;28;20078;-77
2023/05/23 02:27:25;;;;;;;16.75;12.35;;;;;;;-140.66;100.00;55571.53;5116366;28;20043;-77
2023/05/23 02:30:11;;;;;;;29.83;12.80;;;;;;;-140.66;100.00;55571.53;5103016;28;20032;-75
2023/05/23 02:32:57;;;;;;;24.05;12.57;;;;;;;-140.66;100.00;55571.53;5116888;28;20030;-76
2023/05/23 02:35:43;;;;;;;15.15;11.57;;;;;;;-140.66;100.00;55571.53;5102999;28;20023;-76
2023/05/23 02:38:29;;;;;;;16.15;11.80;;;;;;;-140.66;100.00;55571.53;5102049;28;20054;-76
2023/05/23 02:41:15;;;;;;;17.73;12.18;;;;;;;-140.66;100.00;55571.53;5101197;28;20016;-75
2023/05/23 02:44:01;;;;;;;16.50;11.52;;;;;;;-140.66;100.00;55571.53;5102622;28;20027;-77
2023/05/23 02:46:48;;;;;;;14.98;12.00;;;;;;;-140.66;100.00;55571.53;5102548;28;20387;-76
2023/05/23 02:49:34;;;;;;;18.85;12.25;;;;;;;-140.66;100.00;55571.53;5102769;28;20030;-77
2023/05/23 02:52:20;;;;;;;18.10;12.00;;;;;;;-140.66;100.00;55571.53;5118034;27;20027;-77
2023/05/23 02:55:07;;;;;;;19.08;11.27;;;;;;;-140.66;100.00;55571.53;5117440;28;20024;-76
2023/05/23 02:57:52;;;;;;;16.02;11.95;;;;;;;-140.66;100.00;55571.53;5102422;28;20035;-77
2023/05/23 03:00:38;;;;;;;17.25;11.52;;;;;;;-140.66;100.00;55571.53;5115802;28;20448;-76
2023/05/23 03:03:24;;;;;;;18.90;12.27;;;;;;;-140.66;100.00;55571.53;5115982;28;20031;-76
2023/05/23 03:06:13;;;;;;;13.98;10.85;;;;;;;-140.66;100.00;55571.53;5116452;28;20065;-76
2023/05/23 03:09:00;;;;;;;18.25;11.23;;;;;;;-140.66;100.00;55571.53;5102524;28;20032;-76
2023/05/23 03:11:45;;;;;;;19.73;12.38;;;;;;;-140.66;100.00;55571.53;5101928;28;20023;-76
2023/05/23 03:14:31;;;;;;;17.83;12.80;;;;;;;-140.66;100.00;55571.53;5101797;28;20051;-76
2023/05/23 03:17:17;;;;;;;25.13;13.23;;;;;;;-140.66;100.00;55571.53;5117234;28;20106;-77
2023/05/23 03:20:03;;;;;;;19.75;13.60;;;;;;;-140.66;100.00;55571.53;5115476;28;20507;-76
2023/05/23 03:22:49;;;;;;;18.38;12.95;;;;;;;-140.66;100.00;55571.53;5115903;28;20038;-77
2023/05/23 03:25:35;;;;;;;18.90;14.32;;;;;;;-140.66;100.00;55571.53;5115734;28;20463;-75
2023/05/23 03:28:24;;;;;;;24.67;15.35;;;;;;;-140.66;100.00;55571.53;5116412;28;20048;-73
2023/05/23 03:31:09;;;;;;;18.38;13.32;;;;;;;-140.66;100.00;55571.53;5115585;28;20174;-76
2023/05/23 03:33:55;;;;;;;16.42;12.82;;;;;;;-140.66;100.00;55571.53;5116816;28;20066;-76
2023/05/23 03:36:41;;;;;;;16.17;12.48;;;;;;;-140.66;100.00;55571.53;5115454;28;20462;-75
2023/05/23 03:39:27;;;;;;;28.15;13.02;;;;;;;-140.66;100.00;55571.53;5101664;28;20035;-76
2023/05/23 03:42:12;;;;;;;20.05;11.98;;;;;;;-140.66;100.00;55571.53;5116469;28;20051;-76
2023/05/23 03:44:58;;;;;;;16.08;12.27;;;;;;;-140.66;100.00;55571.53;5115344;28;20457;-77
2023/05/23 03:47:44;;;;;;;24.30;13.00;;;;;;;-140.66;100.00;55571.53;5099535;28;20035;-76
2023/05/23 03:50:30;;;;;;;19.00;13.07;;;;;;;-140.66;100.00;55571.53;5114262;28;20092;-77
2023/05/23 03:53:15;;;;;;;19.75;13.02;;;;;;;-140.66;100.00;55571.53;5116468;28;20036;-75
2023/05/23 03:56:01;;;;;;;16.63;12.57;;;;;;;-140.66;100.00;55571.53;5115609;28;20015;-75
2023/05/23 03:58:47;;;;;;;19.08;13.07;;;;;;;-140.66;100.00;55571.53;5115388;28;20505;-76
2023/05/23 04:01:33;;;;;;;20.90;14.25;;;;;;;-140.66;100.00;55571.53;5114759;28;20035;-75
2023/05/23 04:04:19;;;;;;;19.55;13.98;;;;;;;-140.66;100.00;55571.53;5114666;28;20064;-77
2023/05/23 04:07:05;;;;;;;22.98;14.15;;;;;;;-140.66;100.00;55571.53;5116076;28;20027;-76
2023/05/23 04:09:51;;;;;;;26.63;14.52;;;;;;;-140.66;100.00;55571.53;5099996;28;20444;-76
2023/05/23 04:12:40;;;;;;;27.90;15.02;;;;;;;-140.66;100.00;55571.53;5114820;28;20057;-77
2023/05/23 04:15:26;;;;;;;20.95;13.82;;;;;;;-140.66;100.00;55571.53;5115045;28;20120;-76
2023/05/23 04:18:13;;;;;;;22.52;14.18;;;;;;;-140.66;100.00;55571.53;5100140;28;20027;-75
2023/05/23 04:20:59;;;;;;;17.63;13.13;;;;;;;-140.66;100.00;55571.53;5114544;28;20375;-76
2023/05/23 04:23:46;;;;;;;18.05;13.30;;;;;;;-140.66;100.00;55571.53;5099593;28;20087;-76
2023/05/23 04:26:31;;;;;;;20.33;14.45;;;;;;;-140.66;100.00;55571.53;5115881;28;20023;-78
2023/05/23 04:29:17;;;;;;;27.00;15.25;;;;;;;-140.66;100.00;55571.53;5115550;28;20055;-77
2023/05/23 04:32:05;;;;;;;21.25;14.57;;;;;;;-140.66;100.00;55571.53;5115588;28;20062;-78
2023/05/23 04:34:51;;;;;;;19.70;14.48;;;;;;;-140.66;100.00;55571.53;5115736;28;20419;-78
2023/05/23 04:37:38;;;;;;;20.35;14.45;;;;;;;-140.66;100.00;55571.53;5101761;28;20024;-79
2023/05/23 04:40:24;;;;;;;18.27;13.60;;;;;;;-140.66;100.00;55571.53;5114198;28;20019;-78
2023/05/23 04:43:13;;;;;;;19.80;14.23;;;;;;;-140.66;100.00;55571.53;5114832;28;20024;-79
2023/05/23 04:45:59;;;;;;;18.33;13.55;;;;;;;-140.66;100.00;55571.53;5099894;28;20023;-77
2023/05/23 04:48:44;;;;;;;18.05;14.38;;;;;;;-140.66;100.00;55571.53;5100300;28;20432;-78
2023/05/23 04:51:30;;;;;;;18.65;13.55;;;;;;;-140.66;100.00;55571.53;5114852;28;20436;-78
2023/05/23 04:54:16;;;;;;;21.88;14.30;;;;;;;-140.66;100.00;55571.53;5100175;28;20092;-78
2023/05/23 04:57:02;;;;;;;21.38;14.65;;;;;;;-140.66;100.00;55571.53;5114047;28;20093;-78
2023/05/23 04:59:48;;;;;;;25.77;14.35;;;;;;;-140.66;100.00;55571.53;5114052;28;20030;-77
2023/05/23 05:02:34;;;;;;;23.55;14.75;;;;;;;-140.66;100.00;55571.53;5100968;28;20027;-78
2023/05/23 05:05:19;;;;;;;21.63;15.50;;;;;;;-140.66;100.00;55571.53;5118312;28;20084;-79
2023/05/23 05:08:05;;;;;;;21.70;14.05;;;;;;;-140.66;100.00;55571.53;5104796;28;20061;-77
2023/05/23 05:10:51;;;;;;;32.55;18.70;;;;;;;-140.66;100.00;55571.53;5118495;28;20020;-77
2023/05/23 05:13:37;;;;;;;22.90;15.45;;;;;;;-140.66;100.00;55571.53;5118130;28;20026;-77
2023/05/23 05:16:22;;;;;;;20.75;14.55;;;;;;;-140.66;100.00;55571.53;5118385;28;20031;-78
2023/05/23 05:19:08;;;;;;;22.85;16.02;;;;;;;-140.66;100.00;55571.53;5119053;28;20055;-77
2023/05/23 05:21:54;;;;;;;18.58;14.10;;;;;;;-140.66;100.00;55571.53;5118555;28;20307;-80
2023/05/23 05:24:42;;;;;;;20.38;14.57;;;;;;;-140.66;100.00;55571.53;5118571;28;20023;-79
2023/05/23 05:27:28;;;;;;;26.02;15.65;;;;;;;-140.66;100.00;55571.53;5117991;28;20052;-77
2023/05/23 05:30:14;;;;;;;18.85;14.40;;;;;;;-140.66;100.00;55571.53;5118295;28;20088;-76
2023/05/23 05:33:04;;;;;;;20.95;14.23;;;;;;;-140.66;100.00;55571.53;5119008;28;20126;-75
2023/05/23 05:35:50;;;;;;;21.67;14.50;;;;;;;-140.66;100.00;55571.53;5118673;28;20084;-76
2023/05/23 05:38:36;;;;;;;21.60;14.60;;;;;;;-140.66;100.00;55571.53;5117405;28;20032;-78
2023/05/23 05:41:22;;;;;;;21.20;14.18;;;;;;;-140.66;100.00;55571.53;5102733;28;20027;-76
2023/05/23 05:44:09;;;;;;;20.63;15.20;;;;;;;-140.66;100.00;55571.53;5118967;28;20439;-77
2023/05/23 05:46:54;;;;;;;21.80;16.58;;;;;;;-140.66;100.00;55571.53;5117185;28;20027;-77
2023/05/23 05:49:40;;;;;;;18.80;14.38;;;;;;;-140.66;100.00;55571.53;5104331;28;20066;-77
2023/05/23 05:52:26;;;;;;;21.27;14.50;;;;;;;-140.66;100.00;55571.53;5117469;28;20020;-76
2023/05/23 05:55:12;;;;;;;21.23;15.13;;;;;;;-140.66;100.00;55571.53;5116952;28;20028;-77
2023/05/23 05:57:57;;;;;;;16.77;13.02;;;;;;;-140.66;100.00;55571.53;5118413;28;20027;-76
2023/05/23 06:00:44;;;;;;;18.77;14.00;;;;;;;-140.66;100.00;55571.53;5118247;28;20023;-77
2023/05/23 06:03:30;;;;;;;19.83;15.10;;;;;;;-140.66;100.00;55571.53;5117373;28;20050;-77
2023/05/23 06:06:16;;;;;;;20.40;13.80;;;;;;;-140.66;100.00;55571.53;5103093;28;20106;-77
2023/05/23 06:09:01;;;;;;;17.85;13.20;;;;;;;-140.66;100.00;55571.53;5103509;28;20092;-77
2023/05/23 06:11:48;;;;;;;19.30;12.65;;;;;;;-140.66;100.00;55571.53;5116901;28;20028;-77
2023/05/23 06:14:33;;;;;;;18.10;12.30;;;;;;;-140.66;100.00;55571.53;5116543;28;20106;-76
2023/05/23 06:17:19;;;;;;;21.65;13.43;;;;;;;-140.66;100.00;55571.53;5103378;28;20133;-76
2023/05/23 06:20:05;;;;;;;21.00;12.48;;;;;;;-140.66;100.00;55571.53;5121966;28;20015;-75
2023/05/23 06:22:52;;;;;;;26.80;13.57;;;;;;;-140.66;100.00;55571.53;5127544;28;20031;-74
2023/05/23 06:25:38;;;;;;;19.02;13.32;;;;;;;-140.66;100.00;55571.53;5116088;28;20024;-75
2023/05/23 06:28:24;;;;;;;22.92;13.00;;;;;;;-140.66;100.00;55571.53;5112477;28;20044;-77
2023/05/23 06:31:09;;;;;;;15.73;11.25;;;;;;;-140.66;100.00;55571.53;5131733;28;20051;-78
2023/05/23 06:33:55;;;;;;;15.82;11.55;;;;;;;-140.66;100.00;55571.53;5110035;28;20027;-76
2023/05/23 06:36:41;;;;;;;16.27;12.57;;;;;;;-140.66;100.00;55571.53;5119501;28;20028;-77
2023/05/23 06:39:27;;;;;;;16.90;10.70;;;;;;;-140.66;100.00;55571.53;5121182;28;20040;-75
2023/05/23 06:42:14;;;;;;;18.10;11.50;;;;;;;-140.66;100.00;55571.53;5125125;28;20095;-77
2023/05/23 06:45:00;;;;;;;14.73;11.48;;;;;;;-140.66;100.00;55571.53;5122317;28;20031;-77
2023/05/23 06:47:47;;;;;;;17.35;12.05;;;;;;;-140.66;100.00;55571.53;5102964;28;20068;-77
2023/05/23 06:50:32;;;;;;;15.52;11.70;;;;;;;-140.66;100.00;55571.53;5101544;28;20034;-78
2023/05/23 06:53:18;;;;;;;20.90;12.65;;;;;;;-140.66;100.00;55571.53;5102693;28;20088;-78
2023/05/23 06:56:04;;;;;;;20.33;12.38;;;;;;;-140.66;100.00;55571.53;5101798;28;20110;-78
2023/05/23 06:58:50;;;;;;;20.08;12.25;;;;;;;-140.66;100.00;55571.53;5116394;28;20035;-78
2023/05/23 07:01:36;;;;;;;15.48;11.85;;;;;;;-140.66;100.00;55571.53;5116323;28;20076;-77
2023/05/23 07:04:21;;;;;;;16.40;11.45;;;;;;;-140.66;100.00;55571.53;5117398;28;20044;-78
2023/05/23 07:07:07;;;;;;;16.35;12.13;;;;;;;-140.66;100.00;55571.53;5115861;28;20039;-78
2023/05/23 07:09:53;;;;;;;18.38;12.05;;;;;;;-140.66;100.00;55571.53;5118049;27;20055;-78
2023/05/23 07:12:39;;;;;;;20.00;10.90;;;;;;;-140.66;100.00;55571.53;5116962;28;20023;-77
2023/05/23 07:15:24;;;;;;;18.75;10.00;;;;;;;-140.66;100.00;55571.53;5100895;28;20474;-78
2023/05/23 07:18:10;;;;;;;18.23;9.70;;;;;;;-140.66;100.00;55571.53;5116014;28;20032;-79
2023/05/23 07:20:56;;;;;;;15.02;11.02;;;;;;;-140.66;100.00;55571.53;5101502;28;20058;-80
2023/05/23 07:23:42;;;;;;;10.05;8.50;;;;;;;-140.66;100.00;55571.53;5115077;28;20047;-79
2023/05/23 07:26:27;;;;;;;14.02;8.18;;;;;;;-140.66;100.00;55571.53;5118511;28;20457;-78
2023/05/23 07:29:13;;;;;;;13.98;8.57;;;;;;;-140.66;100.00;55571.53;5115786;28;20044;-79
2023/05/23 07:31:59;;;;;;;12.95;8.20;;;;;;;-140.66;100.00;55571.53;5101128;28;20114;-78
2023/05/23 07:34:45;;;;;;;13.35;9.10;;;;;;;-140.66;100.00;55571.53;5115249;28;20033;-78
2023/05/23 07:37:30;;;;;;;12.02;7.85;;;;;;;-140.66;100.00;55571.53;5100992;28;20024;-78
2023/05/23 07:40:16;;;;;;;23.25;9.23;;;;;;;-140.66;100.00;55571.53;5100935;28;20439;-78
2023/05/23 07:43:02;;;;;;;15.75;10.27;;;;;;;-140.66;100.00;55571.53;5101032;28;20031;-78
2023/05/23 07:45:48;;;;;;;15.82;10.15;;;;;;;-140.66;100.00;55571.53;5115434;28;20022;-78
2023/05/23 07:48:34;;;;;;;16.42;8.93;;;;;;;-140.66;100.00;55571.53;5100799;28;20371;-78
2023/05/23 07:51:20;;;;;;;13.55;9.00;;;;;;;-140.66;100.00;55571.53;5100322;28;20054;-79
2023/05/23 07:54:06;;;;;;;12.93;8.60;;;;;;;-140.66;100.00;55571.53;5100544;28;20024;-78
2023/05/23 07:56:53;;;;;;;12.68;8.27;;;;;;;-140.66;100.00;55571.53;5100294;28;20028;-78
2023/05/23 07:59:38;;;;;;;12.52;8.65;;;;;;;-140.66;100.00;55571.53;5114543;28;20042;-79
2023/05/23 08:02:24;;;;;;;11.82;8.77;;;;;;;-140.66;100.00;55571.53;5114760;28;20027;-79
2023/05/23 08:05:10;;;;;;;12.07;8.38;;;;;;;-140.66;100.00;55571.53;5100577;28;20088;-79
2023/05/23 08:07:56;;;;;;;11.50;8.02;;;;;;;-140.66;100.00;55571.53;5100168;28;20077;-78
2023/05/23 08:10:44;;;;;;;10.52;8.32;;;;;;;-140.66;100.00;55571.53;5101055;28;20032;-78
2023/05/23 08:13:30;;;;;;;12.13;9.10;;;;;;;-140.66;100.00;55571.53;5100351;28;20039;-78
2023/05/23 08:16:16;;;;;;;11.85;9.05;;;;;;;-140.66;100.00;55571.53;5114958;28;20115;-78
2023/05/23 08:19:02;;;;;;;15.15;10.43;;;;;;;-140.66;100.00;55571.53;5100274;28;20039;-78
2023/05/23 08:21:48;;;;;;;13.48;8.90;;;;;;;-140.66;100.00;55571.53;5115722;28;20035;-78
2023/05/23 08:24:34;;;;;;;12.13;7.85;;;;;;;-140.66;100.00;55571.53;5114925;28;20084;-78
2023/05/23 08:27:20;;;;;;;14.23;9.00;;;;;;;-140.66;100.00;55571.53;5114185;28;20082;-78
2023/05/23 08:30:07;;;;;;;10.27;8.27;;;;;;;-140.66;100.00;55571.53;5100174;28;20114;-78
2023/05/23 08:32:54;;;;;;;16.17;8.85;;;;;;;-140.66;100.00;55571.53;5114088;28;20031;-78
2023/05/23 08:35:40;;;;;;;13.27;8.80;;;;;;;-140.66;100.00;55571.53;5114703;28;20042;-79
2023/05/23 08:38:26;;;;;;;17.65;8.60;;;;;;;-140.66;100.00;55571.53;5099749;28;20027;-78
2023/05/23 08:41:18;;;;;;;14.82;9.57;;;;;;;-140.66;100.00;55571.53;5116127;28;20028;-79
2023/05/23 08:44:04;;;;;;;12.25;8.25;;;;;;;-140.66;100.00;55571.53;5099554;28;20044;-78
2023/05/23 08:46:52;;;;;;;13.25;7.90;;;;;;;-140.66;100.00;55571.53;5113771;28;20033;-79
2023/05/23 08:49:38;;;;;;;9.55;7.15;;;;;;;-140.66;100.00;55571.53;5113868;28;20055;-79
2023/05/23 08:52:26;;;;;;;11.02;7.30;;;;;;;-140.66;100.00;55571.53;5114372;28;20027;-79
2023/05/23 08:55:13;;;;;;;14.13;7.18;;;;;;;-140.66;100.00;55571.53;5099373;28;20027;-78
2023/05/23 08:57:59;;;;;;;27.13;7.95;;;;;;;-140.66;100.00;55571.53;5099847;28;20027;-79
2023/05/23 09:00:46;;;;;;;11.45;8.10;;;;;;;-140.66;100.00;55571.53;5100697;28;20406;-78
2023/05/23 09:03:32;;;;;;;11.73;6.90;;;;;;;-140.66;100.00;55571.53;5113756;28;20023;-78
2023/05/23 09:06:20;;;;;;;8.95;6.53;;;;;;;-140.66;100.00;55571.53;5099458;28;20023;-79
2023/05/23 09:09:06;;;;;;;11.13;6.43;;;;;;;-140.66;100.00;55571.53;5099575;28;20436;-79
2023/05/23 09:11:54;;;;;;;11.88;6.68;;;;;;;-140.66;100.00;55571.53;5099587;28;20028;-78
2023/05/23 09:14:41;;;;;;;10.85;7.30;;;;;;;-140.66;100.00;55571.53;5099779;28;20027;-78
2023/05/23 09:17:27;;;;;;;11.02;6.00;;;;;;;-140.66;100.00;55571.53;5099344;28;20059;-78
2023/05/23 09:20:14;;;;;;;10.68;6.68;;;;;;;-140.66;100.00;55571.53;5113529;28;20107;-78
2023/05/23 09:23:04;;;;;;;8.23;6.30;;;;;;;-140.66;100.00;55571.53;5099266;28;20037;-77
2023/05/23 09:25:50;;;;;;;11.10;5.82;;;;;;;-140.66;100.00;55571.53;5113899;28;20016;-78
2023/05/23 09:28:37;;;;;;;9.95;6.03;;;;;;;-140.66;100.00;55571.53;5098920;28;20048;-78
2023/05/23 09:31:25;;;;;;;7.88;6.50;;;;;;;-140.66;100.00;55571.53;5113634;28;20028;-78
2023/05/23 09:34:11;;;;;;;9.40;6.00;;;;;;;-140.66;100.00;55571.53;5099878;28;20031;-77
2023/05/23 09:36:57;;;;;;;11.93;5.90;;;;;;;-140.66;100.00;55571.53;5114637;28;20032;-78
2023/05/23 09:39:45;;;;;;;6.93;5.22;;;;;;;-140.66;100.00;55571.53;5099271;28;20355;-78
2023/05/23 09:42:32;;;;;;;10.63;5.60;;;;;;;-140.66;100.00;55571.53;5099486;28;20059;-78
2023/05/23 09:45:18;;;;;;;9.13;5.47;;;;;;;-140.66;100.00;55571.53;5114416;28;20114;-77
2023/05/23 09:48:11;;;;;;;8.70;5.40;;;;;;;-140.66;100.00;55571.53;5099179;28;20035;-78
2023/05/23 09:50:57;;;;;;;7.68;5.13;;;;;;;-140.66;100.00;55571.53;5102564;28;20023;-77
2023/05/23 09:53:43;;;;;;;8.18;5.57;;;;;;;-140.66;100.00;55571.53;5117355;28;20042;-78
2023/05/23 09:56:29;;;;;;;7.97;5.40;;;;;;;-140.66;100.00;55571.53;5117614;28;20096;-78
2023/05/23 09:59:19;;;;;;;6.93;5.60;;;;;;;-140.66;100.00;55571.53;5102556;28;20023;-78
2023/05/23 10:02:07;;;;;;;7.95;5.40;;;;;;;-140.66;100.00;55571.53;5102684;28;20076;-78
2023/05/23 10:04:54;;;;;;;7.25;4.80;;;;;;;-140.66;100.00;55571.53;5127344;28;20024;-77
2023/05/23 10:07:40;;;;;;;5.60;5.00;;;;;;;-140.66;100.00;55571.53;5110205;28;20027;-79
2023/05/23 10:10:30;;;;;;;10.32;5.47;;;;;;;-140.66;100.00;55571.53;5117096;28;20078;-78
2023/05/23 10:13:17;;;;;;;5.97;5.00;;;;;;;-140.66;100.00;55571.53;5117651;28;20363;-77
2023/05/23 10:16:13;;;;;;;7.00;4.75;;;;;;;-140.66;100.00;55571.53;5102832;28;20066;-78
2023/05/23 10:19:05;;;;;;;6.47;4.93;;;;;;;-140.66;100.00;55571.53;5117086;28;20046;-78
2023/05/23 10:21:58;;;;;;;7.45;4.80;;;;;;;-140.66;100.00;55571.53;5116703;28;20444;-77
2023/05/23 10:24:45;;;;;;;6.00;4.60;;;;;;;-140.66;100.00;55571.53;5120547;28;20088;-78
2023/05/23 10:27:31;;;;;;;7.43;5.10;;;;;;;-140.66;100.00;55571.53;5116911;28;20364;-78
2023/05/23 10:30:17;;;;;;;5.78;4.75;;;;;;;-140.66;100.00;55571.53;5102632;28;20463;-78
2023/05/23 10:33:04;;;;;;;5.75;4.50;;;;;;;-140.66;100.00;55571.53;5102067;28;20070;-79
2023/05/23 10:35:58;;;;;;;5.75;4.35;;;;;;;-140.66;100.00;55571.53;5117087;28;20093;-78
2023/05/23 10:38:55;;;;;;;6.85;4.57;;;;;;;-140.66;100.00;55571.53;5116661;28;20038;-78
2023/05/23 10:41:49;;;;;;;5.93;4.68;;;;;;;-140.66;100.00;55571.53;5117474;28;20467;-78
2023/05/23 10:44:35;;;;;;;7.28;5.30;;;;;;;-140.66;100.00;55571.53;5117435;28;20135;-77
2023/05/23 10:47:27;;;;;;;6.88;4.72;;;;;;;-140.66;100.00;55571.53;5116301;28;20031;-78
2023/05/23 10:50:15;;;;;;;5.68;4.25;;;;;;;-140.66;100.00;55571.53;5116566;28;20088;-78
2023/05/23 10:53:05;;;;;;;23.25;5.13;;;;;;;-140.66;100.00;55571.53;5102102;28;20039;-78
2023/05/23 10:55:50;;;;;;;9.02;4.40;;;;;;;-140.66;100.00;55571.53;5102071;28;20031;-78
2023/05/23 10:58:38;;;;;;;5.43;4.05;;;;;;;-140.66;100.00;55571.53;5116104;28;20432;-78
2023/05/23 11:01:25;;;;;;;6.57;4.65;;;;;;;-140.66;100.00;55571.53;5100021;28;20023;-77
2023/05/23 11:04:11;;;;;;;6.43;4.53;;;;;;;-140.66;100.00;55571.53;5101281;28;20110;-79
2023/05/23 11:06:57;;;;;;;7.45;5.03;;;;;;;-140.66;100.00;55571.53;5116390;28;20016;-78
2023/05/23 11:10:15;;;;;;;6.32;4.10;;;;;;;-140.66;100.00;55571.53;5117767;28;20034;-78
2023/05/23 11:13:07;;;;;;;7.65;4.50;;;;;;;-140.66;100.00;55571.53;5117842;28;20106;-79
2023/05/23 11:15:53;;;;;;;7.65;4.43;;;;;;;-140.66;100.00;55571.53;5102113;28;20128;-78
2023/05/23 11:18:39;;;;;;;19.58;5.25;;;;;;;-140.66;100.00;55571.53;5115696;28;20027;-78
2023/05/23 11:21:25;;;;;;;8.55;4.38;;;;;;;-140.66;100.00;55571.53;5102638;28;20059;-78
2023/05/23 11:24:11;;;;;;;7.15;4.18;;;;;;;-140.66;100.00;55571.53;5115224;28;20028;-78
2023/05/23 11:27:02;;;;;;;6.15;4.28;;;;;;;-140.66;100.00;55571.53;5115427;28;20095;-78
2023/05/23 11:29:58;;;;;;;9.73;4.70;;;;;;;-140.66;100.00;55571.53;5115337;28;20432;-78
2023/05/23 11:32:53;;;;;;;9.95;4.10;;;;;;;-140.66;100.00;55571.53;5101330;28;20059;-77
2023/05/23 11:35:44;;;;;;;7.78;4.20;;;;;;;-140.66;100.00;55571.53;5115394;28;20035;-77
2023/05/23 11:38:31;;;;;;;9.75;4.20;;;;;;;-140.66;100.00;55571.53;5101004;28;20027;-79
2023/05/23 11:41:17;;;;;;;8.55;4.43;;;;;;;-140.66;100.00;55571.53;5115612;28;20031;-79
2023/05/23 11:44:11;;;;;;;6.97;4.10;;;;;;;-140.66;100.00;55571.53;5115361;28;20039;-78
2023/05/23 11:47:05;;;;;;;11.77;4.43;;;;;;;-140.66;100.00;55571.53;5101073;28;20452;-78
2023/05/23 11:49:51;;;;;;;6.88;4.03;;;;;;;-140.66;100.00;55571.53;5114969;28;20023;-78
2023/05/23 11:52:37;;;;;;;8.10;4.18;;;;;;;-140.66;100.00;55571.53;5115347;28;20063;-78
2023/05/23 11:55:23;;;;;;;7.65;4.22;;;;;;;-140.66;100.00;55571.53;5114751;28;20031;-78
2023/05/23 11:58:09;;;;;;;7.80;4.22;;;;;;;-140.66;100.00;55571.53;5117045;28;20464;-78
2023/05/23 12:01:03;;;;;;;6.00;4.38;;;;;;;-140.66;100.00;55571.53;5102439;28;20055;-79
2023/05/23 12:03:51;;;;;;;6.88;4.25;;;;;;;-140.66;100.00;55571.53;5100667;28;20084;-78
2023/05/23 12:06:39;;;;;;;8.00;3.67;;;;;;;-140.66;100.00;55571.53;5100534;28;20084;-79
2023/05/23 12:09:25;;;;;;;7.40;3.83;;;;;;;-140.66;100.00;55571.53;5100675;28;20092;-78
2023/05/23 12:12:12;;;;;;;4.22;3.53;;;;;;;-140.66;100.00;55571.53;5114700;28;20024;-78
2023/05/23 12:14:58;;;;;;;5.10;4.00;;;;;;;-140.66;100.00;55571.53;5100980;28;20448;-78
2023/05/23 12:17:45;;;;;;;7.55;3.58;;;;;;;-140.66;100.00;55571.53;5115033;28;20331;-78
2023/05/23 12:20:33;;;;;;;8.50;3.88;;;;;;;-140.66;100.00;55571.53;5117028;28;20023;-77
2023/05/23 12:23:21;;;;;;;9.88;3.97;;;;;;;-140.66;100.00;55571.53;5115094;28;20039;-78
2023/05/23 12:26:08;;;;;;;5.38;3.72;;;;;;;-140.66;100.00;55571.53;5114818;28;20419;-78
2023/05/23 12:28:56;;;;;;;7.35;3.65;;;;;;;-140.66;100.00;55571.53;5113997;28;20051;-79